createdAt,value
2022-12-12T00:01:04.166Z,98582.49
2022-12-12T00:03:28.277Z,98583.17
2022-12-12T00:05:55.034Z,98581.15
2022-12-12T00:08:18.630Z,98585.23
2022-12-12T00:10:42.351Z,98585.58
2022-12-12T00:13:05.825Z,98584.72
2022-12-12T00:15:29.367Z,98583.52
2022-12-12T00:17:52.894Z,98575.52
2022-12-12T00:20:16.593Z,98575.65
2022-12-12T00:22:40.093Z,98573.09
2022-12-12T00:25:05.992Z,98571.89
2022-12-12T00:27:32.001Z,98567.45
2022-12-12T00:29:55.917Z,98562.86
2022-12-12T00:32:19.530Z,98563.90
2022-12-12T00:34:42.946Z,98563.40
2022-12-12T00:37:06.381Z,98568.33
2022-12-12T00:39:30.323Z,98573.77
2022-12-12T00:41:54.084Z,98577.52
2022-12-12T00:44:18.521Z,98574.27
2022-12-12T00:46:42.199Z,98569.02
2022-12-12T00:49:05.865Z,98563.42
2022-12-12T00:51:30.807Z,98563.77
2022-12-12T00:53:54.499Z,98566.99
2022-12-12T00:56:20.047Z,98567.16
2022-12-12T00:58:43.680Z,98572.42
2022-12-12T01:01:10.906Z,98569.18
2022-12-12T01:03:35.181Z,98563.23
2022-12-12T01:05:58.729Z,98556.77
2022-12-12T01:08:22.406Z,98552.86
2022-12-12T01:10:45.857Z,98552.34
2022-12-12T01:13:09.272Z,98555.41
2022-12-12T01:15:33.186Z,98549.64
2022-12-12T01:17:56.841Z,98544.70
2022-12-12T01:20:22.763Z,98542.34
2022-12-12T01:22:46.967Z,98541.48
2022-12-12T01:25:11.236Z,98536.54
2022-12-12T01:27:34.943Z,98532.45
2022-12-12T01:30:01.155Z,98533.14
2022-12-12T01:32:24.751Z,98532.63
2022-12-12T01:34:48.276Z,98536.69
2022-12-12T01:37:11.863Z,98526.46
2022-12-12T01:39:35.553Z,98524.25
2022-12-12T01:41:58.971Z,98521.50
2022-12-12T01:44:41.200Z,98519.80
2022-12-12T01:47:04.906Z,98514.18
2022-12-12T01:49:28.336Z,98514.37
2022-12-12T01:51:56.910Z,98512.52
2022-12-12T01:54:24.031Z,98514.23
2022-12-12T01:56:49.605Z,98514.56
2022-12-12T01:59:15.940Z,98516.59
2022-12-12T02:01:40.168Z,98513.50
2022-12-12T02:04:05.095Z,98514.16
2022-12-12T02:06:29.809Z,98515.67
2022-12-12T02:08:56.530Z,98515.52
2022-12-12T02:11:19.960Z,98520.11
2022-12-12T02:13:44.223Z,98518.41
2022-12-12T02:16:16.623Z,98513.33
2022-12-12T02:18:52.358Z,98511.45
2022-12-12T02:21:21.018Z,98508.60
2022-12-12T02:24:40.728Z,98509.11
2022-12-12T02:27:30.654Z,98506.54
2022-12-12T02:30:10.305Z,98509.08
2022-12-12T02:32:44.318Z,98507.70
2022-12-12T02:35:15.902Z,98509.56
2022-12-12T02:37:48.543Z,98513.48
2022-12-12T02:40:20.704Z,98516.68
2022-12-12T02:42:49.408Z,98520.77
2022-12-12T02:45:19.856Z,98516.17
2022-12-12T02:47:47.728Z,98518.73
2022-12-12T02:50:16.794Z,98517.55
2022-12-12T02:52:43.057Z,98518.58
2022-12-12T02:55:08.295Z,98524.02
2022-12-12T02:57:32.663Z,98525.71
2022-12-12T02:59:57.805Z,98526.05
2022-12-12T03:02:48.842Z,98527.04
2022-12-12T03:05:57.300Z,98526.15
2022-12-12T03:08:35.501Z,98525.10
2022-12-12T03:11:01.888Z,98518.80
2022-12-12T03:13:36.069Z,98520.52
2022-12-12T03:16:10.894Z,98521.38
2022-12-12T03:18:40.613Z,98515.25
2022-12-12T03:21:07.594Z,98507.91
2022-12-12T03:23:35.695Z,98503.35
2022-12-12T03:26:03.635Z,98498.61
2022-12-12T03:28:33.597Z,98495.74
2022-12-12T03:31:00.170Z,98493.18
2022-12-12T03:33:29.888Z,98493.52
2022-12-12T03:35:59.620Z,98494.19
2022-12-12T03:38:28.192Z,98493.31
2022-12-12T03:40:55.226Z,98490.78
2022-12-12T03:43:23.022Z,98491.80
2022-12-12T03:45:53.622Z,98493.89
2022-12-12T03:48:22.204Z,98491.53
2022-12-12T03:50:50.146Z,98491.38
2022-12-12T03:53:18.059Z,98488.52
2022-12-12T03:55:45.657Z,98488.21
2022-12-12T03:58:14.083Z,98489.41
2022-12-12T04:00:42.241Z,98489.73
2022-12-12T04:03:15.591Z,98490.88
2022-12-12T04:06:01.549Z,98490.17
2022-12-12T04:08:25.617Z,98487.75
2022-12-12T04:11:14.926Z,98483.96
2022-12-12T04:13:49.166Z,98482.92
2022-12-12T04:16:15.980Z,98482.90
2022-12-12T04:18:49.540Z,98482.20
2022-12-12T04:21:42.727Z,98476.77
2022-12-12T04:24:17.233Z,98472.70
2022-12-12T04:26:46.450Z,98472.89
2022-12-12T04:29:25.668Z,98472.58
2022-12-12T04:31:53.378Z,98466.44
2022-12-12T04:34:26.026Z,98465.25
2022-12-12T04:36:50.738Z,98463.01
2022-12-12T04:39:16.226Z,98466.41
2022-12-12T04:41:43.275Z,98464.87
2022-12-12T04:44:10.319Z,98463.84
2022-12-12T04:46:36.773Z,98460.23
2022-12-12T04:49:05.959Z,98460.73
2022-12-12T04:51:34.144Z,98459.70
2022-12-12T04:54:04.275Z,98461.59
2022-12-12T04:56:31.006Z,98461.78
2022-12-12T04:58:54.717Z,98458.40
2022-12-12T05:01:28.335Z,98453.27
2022-12-12T05:03:55.403Z,98455.81
2022-12-12T05:06:26.899Z,98450.69
2022-12-12T05:08:53.292Z,98448.77
2022-12-12T05:11:18.429Z,98451.29
2022-12-12T05:13:43.414Z,98453.64
2022-12-12T05:16:17.600Z,98449.69
2022-12-12T05:18:41.063Z,98443.89
2022-12-12T05:21:05.348Z,98441.49
2022-12-12T05:23:34.331Z,98444.73
2022-12-12T05:25:58.145Z,98442.17
2022-12-12T05:28:21.829Z,98440.31
2022-12-12T05:30:45.649Z,98440.80
2022-12-12T05:33:09.104Z,98443.83
2022-12-12T05:35:33.325Z,98436.66
2022-12-12T05:37:56.761Z,98436.84
2022-12-12T05:40:21.152Z,98443.46
2022-12-12T05:42:44.667Z,98437.14
2022-12-12T05:45:10.922Z,98434.36
2022-12-12T05:47:34.628Z,98430.77
2022-12-12T05:49:58.111Z,98433.80
2022-12-12T05:52:21.591Z,98431.38
2022-12-12T05:54:45.062Z,98429.50
2022-12-12T05:57:08.865Z,98428.63
2022-12-12T05:59:32.774Z,98429.14
2022-12-12T06:01:56.226Z,98429.78
2022-12-12T06:04:19.877Z,98430.92
2022-12-12T06:06:43.697Z,98433.41
2022-12-12T06:09:07.463Z,98431.19
2022-12-12T06:11:30.902Z,98432.02
2022-12-12T06:13:54.368Z,98435.23
2022-12-12T06:16:19.037Z,98435.08
2022-12-12T06:18:42.980Z,98443.05
2022-12-12T06:21:08.894Z,98447.30
2022-12-12T06:23:34.747Z,98443.88
2022-12-12T06:25:58.311Z,98447.77
2022-12-12T06:28:21.813Z,98447.09
2022-12-12T06:30:45.304Z,98449.80
2022-12-12T06:33:08.882Z,98449.12
2022-12-12T06:35:32.523Z,98449.30
2022-12-12T06:37:55.977Z,98449.98
2022-12-12T06:40:19.772Z,98450.99
2022-12-12T06:42:48.033Z,98458.28
2022-12-12T06:45:12.826Z,98456.71
2022-12-12T06:47:36.893Z,98459.60
2022-12-12T06:50:00.344Z,98458.91
2022-12-12T06:52:23.858Z,98461.77
2022-12-12T06:54:48.107Z,98462.90
2022-12-12T06:57:11.511Z,98459.79
2022-12-12T06:59:51.228Z,98459.23
2022-12-12T07:02:18.016Z,98457.85
2022-12-12T07:04:41.952Z,98460.53
2022-12-12T07:07:05.419Z,98457.91
2022-12-12T07:09:29.076Z,98454.77
2022-12-12T07:11:52.524Z,98450.82
2022-12-12T07:14:18.323Z,98454.89
2022-12-12T07:16:42.101Z,98456.07
2022-12-12T07:19:05.546Z,98462.85
2022-12-12T07:21:28.994Z,98460.27
2022-12-12T07:23:52.656Z,98462.83
2022-12-12T07:26:23.267Z,98463.17
2022-12-12T07:28:55.021Z,98464.20
2022-12-12T07:31:28.311Z,98461.61
2022-12-12T07:33:52.165Z,98459.49
2022-12-12T07:36:17.065Z,98464.08
2022-12-12T07:38:40.643Z,98462.71
2022-12-12T07:41:06.633Z,98467.13
2022-12-12T07:43:33.160Z,98467.63
2022-12-12T07:45:57.771Z,98468.12
2022-12-12T07:48:21.267Z,98469.30
2022-12-12T07:50:45.382Z,98470.14
2022-12-12T07:53:09.072Z,98466.34
2022-12-12T07:55:32.575Z,98468.67
2022-12-12T07:58:03.664Z,98469.48
2022-12-12T08:00:58.250Z,98476.48
2022-12-12T08:03:22.932Z,98471.70
2022-12-12T08:05:46.620Z,98465.70
2022-12-12T08:08:10.805Z,98472.34
2022-12-12T08:10:35.035Z,98475.70
2022-12-12T08:12:58.811Z,98467.80
2022-12-12T08:15:22.599Z,98469.96
2022-12-12T08:17:47.264Z,98474.69
2022-12-12T08:20:12.122Z,98474.13
2022-12-12T08:22:35.975Z,98476.80
2022-12-12T08:24:59.564Z,98474.02
2022-12-12T08:27:23.153Z,98472.61
2022-12-12T08:29:46.702Z,98474.31
2022-12-12T08:32:11.385Z,98473.27
2022-12-12T08:34:35.384Z,98473.09
2022-12-12T08:37:03.517Z,98469.47
2022-12-12T08:39:28.999Z,98469.43
2022-12-12T08:41:52.748Z,98478.25
2022-12-12T08:44:18.684Z,98476.23
2022-12-12T08:46:42.752Z,98469.63
2022-12-12T08:49:07.238Z,98471.19
2022-12-12T08:51:45.949Z,98472.59
2022-12-12T08:54:17.349Z,98471.08
2022-12-12T08:56:43.372Z,98480.54
2022-12-12T08:59:07.204Z,98473.65
2022-12-12T09:01:30.728Z,98474.27
2022-12-12T09:03:55.981Z,98473.55
2022-12-12T09:06:20.812Z,98474.67
2022-12-12T09:08:45.088Z,98474.31
2022-12-12T09:11:08.892Z,98473.61
2022-12-12T09:13:32.537Z,98472.74
2022-12-12T09:15:56.780Z,98470.50
2022-12-12T09:18:20.420Z,98472.40
2022-12-12T09:20:49.293Z,98470.67
2022-12-12T09:23:12.757Z,98470.85
2022-12-12T09:25:41.287Z,98464.20
2022-12-12T09:28:06.655Z,98474.27
2022-12-12T09:30:30.123Z,98472.79
2022-12-12T09:32:53.539Z,98468.73
2022-12-12T09:35:17.527Z,98472.65
2022-12-12T09:37:41.064Z,98471.83
2022-12-12T09:40:06.422Z,98473.21
2022-12-12T09:42:32.972Z,98473.52
2022-12-12T09:45:00.133Z,98469.39
2022-12-12T09:47:34.493Z,98474.15
2022-12-12T09:50:05.963Z,98477.86
2022-12-12T09:52:32.023Z,98476.09
2022-12-12T09:54:55.985Z,98477.75
2022-12-12T09:57:30.334Z,98483.54
2022-12-12T09:59:58.811Z,98489.66
2022-12-12T10:02:43.879Z,98489.76
2022-12-12T10:05:19.515Z,98485.60
2022-12-12T10:07:46.932Z,98487.91
2022-12-12T10:10:20.735Z,98482.75
2022-12-12T10:12:45.498Z,98487.98
2022-12-12T10:15:20.569Z,98488.41
2022-12-12T10:17:47.289Z,98491.21
2022-12-12T10:20:18.113Z,98492.00
2022-12-12T10:22:49.498Z,98488.91
2022-12-12T10:25:22.349Z,98485.93
2022-12-12T10:28:01.947Z,98490.45
2022-12-12T10:30:25.599Z,98491.55
2022-12-12T10:33:03.482Z,98490.13
2022-12-12T10:35:39.267Z,98489.70
2022-12-12T10:38:19.988Z,98484.64
2022-12-12T10:40:57.988Z,98488.60
2022-12-12T10:43:27.116Z,98486.73
2022-12-12T10:46:09.230Z,98481.45
2022-12-12T10:48:33.561Z,98484.02
2022-12-12T10:51:01.520Z,98481.16
2022-12-12T10:53:25.829Z,98486.38
2022-12-12T10:55:53.215Z,98484.40
2022-12-12T10:58:17.633Z,98485.31
2022-12-12T11:00:43.343Z,98488.30
2022-12-12T11:03:25.973Z,98493.69
2022-12-12T11:05:50.675Z,98489.00
2022-12-12T11:08:26.243Z,98492.06
2022-12-12T11:11:03.685Z,98489.54
2022-12-12T11:13:27.767Z,98487.89
2022-12-12T11:16:07.600Z,98482.50
2022-12-12T11:18:35.264Z,98485.75
2022-12-12T11:21:12.180Z,98489.65
2022-12-12T11:23:39.588Z,98493.69
2022-12-12T11:26:12.366Z,98495.25
2022-12-12T11:28:37.915Z,98497.59
2022-12-12T11:31:06.214Z,98498.02
2022-12-12T11:33:33.276Z,98495.50
2022-12-12T11:35:58.287Z,98493.48
2022-12-12T11:38:26.622Z,98495.56
2022-12-12T11:41:02.435Z,98498.83
2022-12-12T11:43:28.522Z,98499.02
2022-12-12T11:46:05.343Z,98500.27
2022-12-12T11:48:35.669Z,98502.08
2022-12-12T11:50:59.390Z,98506.45
2022-12-12T11:53:23.980Z,98504.52
2022-12-12T11:55:58.739Z,98505.95
2022-12-12T11:58:26.932Z,98505.30
2022-12-12T12:00:56.411Z,98503.60
2022-12-12T12:03:31.336Z,98501.75
2022-12-12T12:06:23.234Z,98503.45
2022-12-12T12:09:13.274Z,98509.67
2022-12-12T12:11:45.919Z,98513.80
2022-12-12T12:14:26.285Z,98517.20
2022-12-12T12:17:01.335Z,98518.92
2022-12-12T12:19:31.947Z,98517.10
2022-12-12T12:22:07.355Z,98515.48
2022-12-12T12:24:53.347Z,98519.30
2022-12-12T12:27:25.594Z,98517.97
2022-12-12T12:30:12.022Z,98519.90
2022-12-12T12:32:49.534Z,98519.96
2022-12-12T12:35:27.705Z,98518.16
2022-12-12T12:38:00.028Z,98519.79
2022-12-12T12:40:40.054Z,98518.48
2022-12-12T12:43:20.418Z,98518.86
2022-12-12T12:45:53.272Z,98518.06
2022-12-12T12:48:22.450Z,98518.45
2022-12-12T12:50:52.009Z,98520.36
2022-12-12T12:53:25.275Z,98520.77
2022-12-12T12:55:54.634Z,98523.55
2022-12-12T12:58:22.306Z,98525.47
2022-12-12T13:00:52.019Z,98522.10
2022-12-12T13:03:24.252Z,98524.55
2022-12-12T13:05:51.110Z,98527.48
2022-12-12T13:08:18.921Z,98526.67
2022-12-12T13:10:46.423Z,98527.55
2022-12-12T13:13:17.649Z,98530.51
2022-12-12T13:15:44.564Z,98536.70
2022-12-12T13:18:17.016Z,98538.58
2022-12-12T13:20:42.697Z,98536.21
2022-12-12T13:23:34.346Z,98542.90
2022-12-12T13:26:03.432Z,98543.45
2022-12-12T13:28:33.223Z,98540.07
2022-12-12T13:31:17.752Z,98546.05
2022-12-12T13:33:46.014Z,98546.61
2022-12-12T13:36:15.916Z,98550.40
2022-12-12T13:38:40.573Z,98550.61
2022-12-12T13:41:06.916Z,98556.61
2022-12-12T13:43:42.772Z,98554.77
2022-12-12T13:46:35.037Z,98555.83
2022-12-12T13:49:10.169Z,98560.98
2022-12-12T13:51:36.258Z,98565.11
2022-12-12T13:54:32.781Z,98565.66
2022-12-12T13:57:12.991Z,98567.05
2022-12-12T14:00:16.133Z,98566.36
2022-12-12T14:02:44.394Z,98565.83
2022-12-12T14:05:12.200Z,98565.31
2022-12-12T14:07:36.423Z,98570.40
2022-12-12T14:10:14.345Z,98568.96
2022-12-12T14:12:39.186Z,98574.72
2022-12-12T14:15:06.779Z,98572.13
2022-12-12T14:17:41.768Z,98570.18
2022-12-12T14:20:23.127Z,98573.04
2022-12-12T14:23:21.337Z,98576.39
2022-12-12T14:25:45.294Z,98573.41
2022-12-12T14:28:22.447Z,98576.92
2022-12-12T14:31:08.066Z,98582.28
2022-12-12T14:34:03.942Z,98577.80
2022-12-12T14:36:52.142Z,98579.27
2022-12-12T14:39:24.801Z,98579.11
2022-12-12T14:41:50.551Z,98576.38
2022-12-12T14:44:35.685Z,98577.61
2022-12-12T14:47:08.427Z,98583.79
2022-12-12T14:49:31.909Z,98583.98
2022-12-12T14:51:58.082Z,98576.67
2022-12-12T14:54:24.052Z,98582.91
2022-12-12T14:56:53.211Z,98583.73
2022-12-12T14:59:22.178Z,98586.64
2022-12-12T15:01:48.917Z,98583.71
2022-12-12T15:04:15.865Z,98592.70
2022-12-12T15:06:40.148Z,98595.89
2022-12-12T15:09:19.011Z,98600.29
2022-12-12T15:11:43.135Z,98596.13
2022-12-12T15:14:06.687Z,98598.86
2022-12-12T15:16:36.075Z,98601.28
2022-12-12T15:19:01.322Z,98603.38
2022-12-12T15:21:24.962Z,98602.41
2022-12-12T15:23:48.779Z,98603.83
2022-12-12T15:26:19.728Z,98605.92
2022-12-12T15:28:45.424Z,98607.14
2022-12-12T15:31:14.954Z,98610.73
2022-12-12T15:33:39.418Z,98608.89
2022-12-12T15:36:04.331Z,98611.50
2022-12-12T15:38:29.422Z,98609.30
2022-12-12T15:40:54.524Z,98615.30
2022-12-12T15:43:20.526Z,98610.19
2022-12-12T15:45:49.581Z,98613.45
2022-12-12T15:48:15.369Z,98604.40
2022-12-12T15:50:53.260Z,98611.58
2022-12-12T15:53:21.435Z,98611.27
2022-12-12T15:55:56.708Z,98609.23
2022-12-12T15:58:29.270Z,98609.25
2022-12-12T16:01:00.925Z,98608.45
2022-12-12T16:03:24.524Z,98615.08
2022-12-12T16:06:16.350Z,98621.92
2022-12-12T16:08:46.219Z,98622.65
2022-12-12T16:11:31.856Z,98626.42
2022-12-12T16:13:55.358Z,98624.59
2022-12-12T16:16:36.374Z,98626.84
2022-12-12T16:19:00.353Z,98633.54
2022-12-12T16:21:24.491Z,98634.23
2022-12-12T16:23:48.035Z,98637.63
2022-12-12T16:26:11.491Z,98639.87
2022-12-12T16:28:35.184Z,98638.67
2022-12-12T16:31:01.035Z,98640.05
2022-12-12T16:33:30.997Z,98637.99
2022-12-12T16:35:55.035Z,98640.40
2022-12-12T16:38:19.268Z,98644.66
2022-12-12T16:40:43.528Z,98641.60
2022-12-12T16:43:11.390Z,98648.27
2022-12-12T16:45:35.355Z,98651.35
2022-12-12T16:47:59.261Z,98648.80
2022-12-12T16:50:22.711Z,98651.36
2022-12-12T16:52:46.256Z,98652.73
2022-12-12T16:55:16.468Z,98655.96
2022-12-12T16:57:39.883Z,98656.48
2022-12-12T17:00:06.203Z,98658.20
2022-12-12T17:02:29.707Z,98662.47
2022-12-12T17:04:53.699Z,98661.60
2022-12-12T17:07:17.893Z,98663.98
2022-12-12T17:09:41.853Z,98671.50
2022-12-12T17:12:08.195Z,98672.86
2022-12-12T17:14:31.698Z,98669.46
2022-12-12T17:16:56.166Z,98660.27
2022-12-12T17:19:20.844Z,98664.02
2022-12-12T17:21:44.638Z,98669.48
2022-12-12T17:24:09.160Z,98673.39
2022-12-12T17:26:32.598Z,98682.44
2022-12-12T17:28:56.376Z,98682.93
2022-12-12T17:31:19.866Z,98691.79
2022-12-12T17:33:50.685Z,98686.29
2022-12-12T17:36:15.340Z,98689.85
2022-12-12T17:38:38.844Z,98690.90
2022-12-12T17:41:08.189Z,98690.61
2022-12-12T17:43:32.035Z,98693.05
2022-12-12T17:46:00.718Z,98700.10
2022-12-12T17:48:24.273Z,98699.30
2022-12-12T17:50:56.923Z,98700.91
2022-12-12T17:53:20.920Z,98703.85
2022-12-12T17:55:52.044Z,98707.63
2022-12-12T17:58:19.693Z,98716.67
2022-12-12T18:00:43.140Z,98719.27
2022-12-12T18:03:06.727Z,98721.02
2022-12-12T18:05:31.596Z,98720.13
2022-12-12T18:07:56.559Z,98722.48
2022-12-12T18:10:20.088Z,98716.49
2022-12-12T18:12:49.794Z,98718.69
2022-12-12T18:15:15.070Z,98723.25
2022-12-12T18:17:39.997Z,98724.58
2022-12-12T18:20:04.544Z,98719.59
2022-12-12T18:22:27.932Z,98722.30
2022-12-12T18:24:51.345Z,98721.10
2022-12-12T18:27:15.166Z,98732.17
2022-12-12T18:29:38.657Z,98731.84
2022-12-12T18:32:02.264Z,98735.77
2022-12-12T18:34:26.444Z,98732.23
2022-12-12T18:36:49.905Z,98739.23
2022-12-12T18:39:13.426Z,98743.00
2022-12-12T18:41:37.327Z,98741.13
2022-12-12T18:44:05.756Z,98749.13
2022-12-12T18:46:31.291Z,98746.73
2022-12-12T18:48:55.317Z,98749.96
2022-12-12T18:51:21.706Z,98753.39
2022-12-12T18:53:46.631Z,98761.64
2022-12-12T18:56:12.818Z,98761.36
2022-12-12T18:58:37.032Z,98765.16
2022-12-12T19:01:04.569Z,98769.51
2022-12-12T19:03:28.518Z,98774.04
2022-12-12T19:05:52.295Z,98773.73
2022-12-12T19:08:15.813Z,98782.67
2022-12-12T19:10:40.255Z,98781.20
2022-12-12T19:13:04.322Z,98787.90
2022-12-12T19:15:27.767Z,98788.77
2022-12-12T19:17:51.407Z,98792.39
2022-12-12T19:20:15.004Z,98796.34
2022-12-12T19:22:46.706Z,98795.17
2022-12-12T19:25:11.029Z,98794.00
2022-12-12T19:27:34.479Z,98803.40
2022-12-12T19:29:57.978Z,98804.44
2022-12-12T19:32:21.700Z,98807.50
2022-12-12T19:34:45.207Z,98806.84
2022-12-12T19:37:08.782Z,98804.14
2022-12-12T19:39:32.606Z,98813.02
2022-12-12T19:41:56.059Z,98815.58
2022-12-12T19:44:19.510Z,98817.83
2022-12-12T19:46:45.676Z,98820.39
2022-12-12T19:49:12.735Z,98822.44
2022-12-12T19:51:38.648Z,98827.58
2022-12-12T19:54:05.682Z,98833.38
2022-12-12T19:56:32.922Z,98838.34
2022-12-12T19:58:56.895Z,98838.66
2022-12-12T20:01:22.704Z,98841.74
2022-12-12T20:03:50.263Z,98844.14
2022-12-12T20:06:13.916Z,98846.02
2022-12-12T20:08:38.425Z,98851.48
2022-12-12T20:11:04.977Z,98851.66
2022-12-12T20:13:28.472Z,98849.64
2022-12-12T20:15:52.178Z,98847.95
2022-12-12T20:18:16.706Z,98851.55
2022-12-12T20:20:40.311Z,98854.98
2022-12-12T20:23:04.346Z,98858.23
2022-12-12T20:25:27.829Z,98866.45
2022-12-12T20:27:51.361Z,98871.40
2022-12-12T20:30:15.471Z,98878.91
2022-12-12T20:32:39.139Z,98875.31
2022-12-12T20:35:02.834Z,98880.08
2022-12-12T20:37:26.259Z,98881.60
2022-12-12T20:39:49.850Z,98880.91
2022-12-12T20:42:13.327Z,98884.33
2022-12-12T20:44:37.406Z,98883.80
2022-12-12T20:47:01.334Z,98884.80
2022-12-12T20:49:28.036Z,98891.44
2022-12-12T20:51:57.296Z,98890.90
2022-12-12T20:54:23.396Z,98896.20
2022-12-12T20:56:47.929Z,98896.34
2022-12-12T20:59:11.817Z,98894.81
2022-12-12T21:01:37.212Z,98896.19
2022-12-12T21:04:02.023Z,98907.43
2022-12-12T21:06:28.192Z,98909.84
2022-12-12T21:08:51.783Z,98904.05
2022-12-12T21:11:16.825Z,98907.64
2022-12-12T21:13:40.334Z,98913.79
2022-12-12T21:16:09.456Z,98912.27
2022-12-12T21:18:33.036Z,98919.95
2022-12-12T21:20:56.536Z,98919.45
2022-12-12T21:23:21.429Z,98923.36
2022-12-12T21:25:44.859Z,98925.06
2022-12-12T21:28:08.664Z,98926.77
2022-12-12T21:30:32.361Z,98928.14
2022-12-12T21:32:56.647Z,98926.77
2022-12-12T21:35:20.204Z,98928.30
2022-12-12T21:37:43.904Z,98930.69
2022-12-12T21:40:10.432Z,98938.02
2022-12-12T21:42:34.627Z,98945.69
2022-12-12T21:44:58.407Z,98947.05
2022-12-12T21:47:21.832Z,98946.70
2022-12-12T21:49:45.681Z,98947.89
2022-12-12T21:52:11.203Z,98949.94
2022-12-12T21:54:34.688Z,98950.44
2022-12-12T21:56:59.473Z,98948.03
2022-12-12T21:59:24.280Z,98951.08
2022-12-12T22:01:48.007Z,98954.49
2022-12-12T22:04:12.382Z,98954.34
2022-12-12T22:06:36.862Z,98954.70
2022-12-12T22:09:02.140Z,98956.79
2022-12-12T22:11:41.580Z,98952.86
2022-12-12T22:14:11.990Z,98954.77
2022-12-12T22:16:36.164Z,98964.69
2022-12-12T22:19:05.569Z,98970.14
2022-12-12T22:21:29.996Z,98971.19
2022-12-12T22:23:54.966Z,98970.86
2022-12-12T22:26:21.663Z,98977.53
2022-12-12T22:28:45.683Z,98982.31
2022-12-12T22:31:09.542Z,98977.54
2022-12-12T22:33:33.080Z,98982.32
2022-12-12T22:36:02.966Z,98984.86
2022-12-12T22:38:26.604Z,98986.05
2022-12-12T22:40:54.633Z,98985.39
2022-12-12T22:43:20.843Z,98983.35
2022-12-12T22:45:44.291Z,98983.88
2022-12-12T22:48:07.864Z,98988.48
2022-12-12T22:50:31.322Z,98992.05
2022-12-12T22:52:54.736Z,98988.66
2022-12-12T22:55:18.365Z,98991.05
2022-12-12T22:57:44.502Z,98994.09
2022-12-12T23:00:09.909Z,99001.25
2022-12-12T23:02:33.499Z,98997.33
2022-12-12T23:04:57.319Z,98998.54
2022-12-12T23:07:20.948Z,99001.61
2022-12-12T23:09:51.782Z,98998.19
2022-12-12T23:12:15.464Z,99005.51
2022-12-12T23:14:38.951Z,99004.66
2022-12-12T23:17:02.331Z,99004.66
2022-12-12T23:19:28.105Z,99007.38
2022-12-12T23:21:51.959Z,99010.79
2022-12-12T23:24:15.866Z,99012.33
2022-12-12T23:26:40.076Z,99016.59
2022-12-12T23:29:08.446Z,99026.29
2022-12-12T23:31:34.492Z,99030.71
2022-12-12T23:34:04.072Z,99031.03
2022-12-12T23:36:28.667Z,99032.40
2022-12-12T23:38:55.403Z,99040.89
2022-12-12T23:41:19.223Z,99043.95
2022-12-12T23:43:43.161Z,99040.54
2022-12-12T23:46:08.744Z,99041.90
2022-12-12T23:48:32.551Z,99041.23
2022-12-12T23:50:56.181Z,99047.70
2022-12-12T23:53:19.613Z,99044.11
2022-12-12T23:55:43.261Z,99050.61
2022-12-12T23:58:07.023Z,99052.14
